Time;durP1;ratioP1;P1;durP2;ratioP2;P2;SDS_P1;SDS_P2;PMS_P1;PMS_P2;Temp;Humidity;BMP_temperature;BMP_pressure;BME280_temperature;BME280_humidity;BME280_pressure;Samples;Min_cycle;Max_cycle;Signal;HPM_P1;HPM_P2
2023/07/13 00:01:54;;;;;;;;;5.33;4.33;;;;;;;;5100062;27;45224;-75
2023/07/13 00:04:20;;;;;;;;;2.00;2.00;;;;;;;;5099795;27;45335;-75
2023/07/13 00:06:46;;;;;;;;;3.00;1.67;;;;;;;;5099946;27;45518;-76
2023/07/13 00:09:13;;;;;;;;;3.00;3.00;;;;;;;;5100192;27;45318;-75
2023/07/13 00:11:38;;;;;;;;;5.67;4.00;;;;;;;;5071508;28;46942;-75
2023/07/13 00:14:03;;;;;;;;;4.00;4.00;;;;;;;;5060840;28;47263;-75
2023/07/13 00:16:29;;;;;;;;;4.00;4.00;;;;;;;;5079458;28;45332;-75
2023/07/13 00:18:54;;;;;;;;;4.00;4.00;;;;;;;;5079501;28;45539;-75
2023/07/13 00:21:19;;;;;;;;;5.00;4.00;;;;;;;;5079299;28;45494;-75
2023/07/13 00:23:44;;;;;;;;;4.67;4.67;;;;;;;;5079286;28;45323;-75
2023/07/13 00:26:11;;;;;;;;;4.33;3.00;;;;;;;;5060978;28;45392;-75
2023/07/13 00:28:36;;;;;;;;;4.00;4.00;;;;;;;;5081840;27;45414;-75
2023/07/13 00:31:02;;;;;;;;;5.33;5.33;;;;;;;;5099491;27;45283;-75
2023/07/13 00:33:28;;;;;;;;;4.00;4.00;;;;;;;;5102279;27;45531;-75
2023/07/13 00:35:54;;;;;;;;;3.00;3.00;;;;;;;;5103060;27;45312;-75
2023/07/13 00:38:19;;;;;;;;;4.00;4.00;;;;;;;;5103319;27;45476;-75
2023/07/13 00:40:44;;;;;;;;;3.67;3.67;;;;;;;;5102833;27;45493;-75
2023/07/13 00:43:12;;;;;;;;;4.33;3.33;;;;;;;;5084104;27;47258;-75
2023/07/13 00:45:43;;;;;;;;;5.00;5.00;;;;;;;;5102856;27;45368;-76
2023/07/13 00:48:08;;;;;;;;;5.00;4.00;;;;;;;;5102983;27;45539;-75
2023/07/13 00:50:34;;;;;;;;;4.00;4.00;;;;;;;;5102784;27;45390;-75
2023/07/13 00:52:59;;;;;;;;;3.67;3.00;;;;;;;;5102922;27;46518;-75
2023/07/13 00:55:24;;;;;;;;;3.00;3.00;;;;;;;;5102975;27;45327;-75
2023/07/13 00:57:50;;;;;;;;;4.33;4.33;;;;;;;;5102938;27;45694;-75
2023/07/13 01:00:16;;;;;;;;;4.00;4.00;;;;;;;;5102518;27;45480;-75
2023/07/13 01:02:44;;;;;;;;;6.67;5.00;;;;;;;;5102836;27;46228;-75
2023/07/13 01:05:13;;;;;;;;;7.00;7.00;;;;;;;;5102636;27;45380;-75
2023/07/13 01:07:39;;;;;;;;;4.00;4.00;;;;;;;;5102866;27;45372;-75
2023/07/13 01:10:04;;;;;;;;;4.67;4.67;;;;;;;;5084160;27;46187;-75
2023/07/13 01:12:30;;;;;;;;;7.67;6.67;;;;;;;;5102546;27;45330;-75
2023/07/13 01:15:00;;;;;;;;;7.00;7.00;;;;;;;;5102363;27;45371;-75
2023/07/13 01:17:25;;;;;;;;;5.00;4.00;;;;;;;;5084013;27;45359;-75
2023/07/13 01:19:51;;;;;;;;;4.00;4.00;;;;;;;;5102385;27;45209;-75
2023/07/13 01:22:17;;;;;;;;;4.33;4.33;;;;;;;;5083790;27;48326;-75
2023/07/13 01:24:43;;;;;;;;;5.33;5.00;;;;;;;;5102414;27;45689;-75
2023/07/13 01:27:10;;;;;;;;;6.00;6.00;;;;;;;;5102510;27;45324;-75
2023/07/13 01:29:41;;;;;;;;;4.00;4.00;;;;;;;;5090675;27;45425;-75
2023/07/13 01:32:08;;;;;;;;;6.67;5.67;;;;;;;;5081701;28;45283;-75
2023/07/13 01:34:33;;;;;;;;;5.33;5.33;;;;;;;;5063436;28;46153;-75
2023/07/13 01:36:59;;;;;;;;;5.33;5.33;;;;;;;;5081836;28;45335;-75
2023/07/13 01:39:27;;;;;;;;;4.67;4.67;;;;;;;;5081573;28;45269;-75
2023/07/13 01:41:52;;;;;;;;;9.00;7.00;;;;;;;;5081622;28;45320;-75
2023/07/13 01:44:17;;;;;;;;;5.00;5.00;;;;;;;;5080320;28;45573;-75
2023/07/13 01:46:43;;;;;;;;;6.67;6.67;;;;;;;;5081616;28;45315;-75
2023/07/13 01:49:08;;;;;;;;;5.67;5.67;;;;;;;;5081614;28;45279;-75
2023/07/13 01:51:33;;;;;;;;;4.67;4.00;;;;;;;;5081260;28;46204;-75
2023/07/13 01:53:58;;;;;;;;;5.33;5.33;;;;;;;;5081516;28;45313;-75
2023/07/13 01:56:23;;;;;;;;;5.00;5.00;;;;;;;;5063320;28;45397;-75
2023/07/13 01:58:49;;;;;;;;;6.00;5.67;;;;;;;;5081157;28;45407;-75
2023/07/13 02:01:14;;;;;;;;;4.00;3.67;;;;;;;;5081205;28;46276;-75
2023/07/13 02:03:39;;;;;;;;;3.33;3.00;;;;;;;;5081333;28;45315;-75
2023/07/13 02:06:04;;;;;;;;;5.00;5.00;;;;;;;;5063043;28;45290;-75
2023/07/13 02:08:30;;;;;;;;;4.00;4.00;;;;;;;;5081185;28;45294;-75
2023/07/13 02:10:55;;;;;;;;;4.00;3.67;;;;;;;;5081053;28;45340;-75
2023/07/13 02:13:20;;;;;;;;;4.00;4.00;;;;;;;;5062673;28;45617;-75
2023/07/13 02:15:46;;;;;;;;;4.33;4.33;;;;;;;;5062960;28;45208;-75
2023/07/13 02:18:12;;;;;;;;;5.33;4.33;;;;;;;;5081147;28;45367;-75
2023/07/13 02:20:40;;;;;;;;;4.33;4.33;;;;;;;;5062586;28;47550;-75
2023/07/13 02:23:05;;;;;;;;;6.33;3.33;;;;;;;;5081034;28;45447;-75
2023/07/13 02:25:31;;;;;;;;;4.33;3.67;;;;;;;;5081037;28;45517;-75
2023/07/13 02:27:56;;;;;;;;;6.00;4.00;;;;;;;;5080792;28;45257;-75
2023/07/13 02:30:24;;;;;;;;;3.00;3.00;;;;;;;;5080098;28;45370;-74
2023/07/13 02:32:49;;;;;;;;;3.00;3.00;;;;;;;;5081015;28;45367;-75
2023/07/13 02:35:14;;;;;;;;;4.67;4.67;;;;;;;;5080744;28;45631;-75
2023/07/13 02:37:40;;;;;;;;;4.00;4.00;;;;;;;;5080843;28;45354;-75
2023/07/13 02:40:08;;;;;;;;;2.33;2.00;;;;;;;;5080581;28;45291;-75
2023/07/13 02:42:33;;;;;;;;;1.67;1.67;;;;;;;;5080490;28;45316;-75
2023/07/13 02:44:58;;;;;;;;;2.33;2.33;;;;;;;;5080576;28;45840;-75
2023/07/13 02:47:24;;;;;;;;;3.67;3.67;;;;;;;;5080369;28;45406;-75
2023/07/13 02:49:49;;;;;;;;;2.00;2.00;;;;;;;;5080540;28;45300;-75
2023/07/13 02:52:14;;;;;;;;;4.33;4.33;;;;;;;;5062057;28;45795;-75
2023/07/13 02:54:39;;;;;;;;;4.33;4.33;;;;;;;;5061686;28;45359;-75
2023/07/13 02:57:05;;;;;;;;;5.00;5.00;;;;;;;;5080528;28;45551;-75
2023/07/13 02:59:30;;;;;;;;;5.33;4.00;;;;;;;;5080280;28;46467;-75
2023/07/13 03:01:55;;;;;;;;;4.00;4.00;;;;;;;;5080435;28;45303;-75
2023/07/13 03:04:20;;;;;;;;;3.67;3.00;;;;;;;;5062224;28;45439;-76
2023/07/13 03:06:46;;;;;;;;;3.00;3.00;;;;;;;;5080345;28;45387;-75
2023/07/13 03:09:12;;;;;;;;;3.00;3.00;;;;;;;;5080205;28;46046;-75
2023/07/13 03:11:40;;;;;;;;;4.33;4.00;;;;;;;;5073881;28;45883;-75
2023/07/13 03:14:06;;;;;;;;;3.67;3.67;;;;;;;;5059966;28;45260;-75
2023/07/13 03:16:31;;;;;;;;;4.33;3.33;;;;;;;;5059881;28;45276;-75
2023/07/13 03:18:56;;;;;;;;;3.00;2.67;;;;;;;;5059779;28;45370;-75
2023/07/13 03:21:22;;;;;;;;;3.33;3.33;;;;;;;;5059932;28;45215;-75
2023/07/13 03:23:47;;;;;;;;;4.00;4.00;;;;;;;;5060048;28;45225;-75
2023/07/13 03:26:14;;;;;;;;;1.33;1.33;;;;;;;;5059905;28;45276;-75
2023/07/13 03:28:39;;;;;;;;;5.00;3.00;;;;;;;;5065549;27;45291;-75
2023/07/13 03:31:06;;;;;;;;;2.00;2.00;;;;;;;;5100411;27;45259;-75
2023/07/13 03:33:32;;;;;;;;;3.67;3.67;;;;;;;;5100423;27;45321;-75
2023/07/13 03:35:57;;;;;;;;;5.00;4.00;;;;;;;;5100166;27;45565;-75
2023/07/13 03:38:22;;;;;;;;;5.33;3.33;;;;;;;;5100262;27;45790;-75
2023/07/13 03:40:47;;;;;;;;;4.00;3.00;;;;;;;;5081789;27;45568;-75
2023/07/13 03:43:12;;;;;;;;;3.00;2.00;;;;;;;;5100101;27;45465;-75
2023/07/13 03:45:38;;;;;;;;;2.33;2.33;;;;;;;;5100165;27;45349;-75
2023/07/13 03:48:04;;;;;;;;;4.00;3.67;;;;;;;;5081572;27;48168;-75
2023/07/13 03:50:30;;;;;;;;;4.00;4.00;;;;;;;;5099901;27;45317;-75
2023/07/13 03:52:57;;;;;;;;;3.67;3.00;;;;;;;;5081750;27;45327;-75
2023/07/13 03:55:22;;;;;;;;;3.67;3.67;;;;;;;;5099988;27;45360;-75
2023/07/13 03:57:48;;;;;;;;;3.67;3.00;;;;;;;;5099962;27;45459;-75
2023/07/13 04:00:13;;;;;;;;;4.00;4.00;;;;;;;;5081621;27;45256;-75
2023/07/13 04:02:38;;;;;;;;;6.00;2.00;;;;;;;;5100291;27;45351;-75
2023/07/13 04:05:04;;;;;;;;;2.00;2.00;;;;;;;;5100003;27;45634;-75
2023/07/13 04:07:29;;;;;;;;;2.00;2.00;;;;;;;;5101062;27;46301;-75
2023/07/13 04:09:54;;;;;;;;;3.00;3.00;;;;;;;;5085371;27;45284;-75
2023/07/13 04:12:19;;;;;;;;;3.00;2.00;;;;;;;;5103823;27;45274;-75
2023/07/13 04:14:44;;;;;;;;;2.33;2.33;;;;;;;;5084945;27;47431;-75
2023/07/13 04:17:09;;;;;;;;;1.33;1.00;;;;;;;;5103543;27;45336;-75
2023/07/13 04:19:35;;;;;;;;;4.33;3.00;;;;;;;;5103477;27;45298;-75
2023/07/13 04:22:00;;;;;;;;;2.00;2.00;;;;;;;;5084933;27;45392;-75
2023/07/13 04:24:25;;;;;;;;;5.00;4.00;;;;;;;;5103141;27;45481;-75
2023/07/13 04:26:51;;;;;;;;;2.67;2.67;;;;;;;;5084909;27;47147;-75
2023/07/13 04:29:16;;;;;;;;;2.33;2.00;;;;;;;;5094610;27;45490;-76
2023/07/13 04:31:41;;;;;;;;;3.67;3.67;;;;;;;;5082862;28;45322;-76
2023/07/13 04:34:06;;;;;;;;;3.67;1.00;;;;;;;;5064512;28;46904;-76
2023/07/13 04:36:31;;;;;;;;;2.00;2.00;;;;;;;;5082559;28;45422;-76
2023/07/13 04:38:57;;;;;;;;;2.00;2.00;;;;;;;;5082700;28;45294;-76
2023/07/13 04:41:22;;;;;;;;;2.00;1.00;;;;;;;;5082891;28;45314;-76
2023/07/13 04:43:47;;;;;;;;;1.00;1.00;;;;;;;;5082053;28;45453;-76
2023/07/13 04:46:14;;;;;;;;;0.33;0.33;;;;;;;;5064037;28;47579;-76
2023/07/13 04:48:39;;;;;;;;;2.33;2.33;;;;;;;;5064243;28;45357;-76
2023/07/13 04:51:04;;;;;;;;;1.00;1.00;;;;;;;;5064191;28;45234;-77
2023/07/13 04:53:30;;;;;;;;;1.33;1.33;;;;;;;;5064026;28;47538;-76
2023/07/13 04:55:55;;;;;;;;;1.00;1.00;;;;;;;;5064056;28;47513;-76
2023/07/13 04:58:21;;;;;;;;;2.33;1.33;;;;;;;;5063943;28;45296;-76
2023/07/13 05:00:46;;;;;;;;;2.33;2.33;;;;;;;;5082483;28;45215;-76
2023/07/13 05:03:12;;;;;;;;;2.00;1.00;;;;;;;;5082205;28;45265;-75
2023/07/13 05:05:37;;;;;;;;;1.00;1.00;;;;;;;;5076664;28;45612;-75
2023/07/13 05:08:02;;;;;;;;;1.67;1.67;;;;;;;;5076102;28;46387;-75
2023/07/13 05:10:28;;;;;;;;;5.67;2.00;;;;;;;;5070226;27;45464;-74
2023/07/13 05:12:53;;;;;;;;;1.00;1.00;;;;;;;;5061815;28;45545;-74
2023/07/13 05:15:21;;;;;;;;;2.67;2.00;;;;;;;;5076603;28;45390;-75
2023/07/13 05:17:46;;;;;;;;;1.00;1.00;;;;;;;;5062764;28;45402;-74
2023/07/13 05:20:12;;;;;;;;;4.00;2.00;;;;;;;;5057292;28;45357;-75
2023/07/13 05:22:37;;;;;;;;;1.67;1.67;;;;;;;;5061561;28;45310;-75
2023/07/13 05:25:04;;;;;;;;;1.33;1.33;;;;;;;;5061542;28;46201;-75
2023/07/13 05:27:29;;;;;;;;;3.00;3.00;;;;;;;;5061657;28;45323;-74
2023/07/13 05:29:55;;;;;;;;;1.00;1.00;;;;;;;;5088878;27;45412;-75
2023/07/13 05:32:20;;;;;;;;;3.33;2.33;;;;;;;;5102140;27;45354;-75
2023/07/13 05:34:45;;;;;;;;;1.33;1.33;;;;;;;;5102056;27;45332;-76
2023/07/13 05:37:10;;;;;;;;;1.00;1.00;;;;;;;;5083754;27;45344;-75
2023/07/13 05:39:35;;;;;;;;;2.00;2.00;;;;;;;;5102282;27;45211;-74
2023/07/13 05:42:01;;;;;;;;;3.33;3.33;;;;;;;;5102271;27;45251;-75
2023/07/13 05:44:26;;;;;;;;;2.00;1.33;;;;;;;;5083422;27;47714;-75
2023/07/13 05:46:52;;;;;;;;;2.00;2.00;;;;;;;;5101556;27;45325;-75
2023/07/13 05:49:17;;;;;;;;;1.33;1.00;;;;;;;;5101983;27;45313;-75
2023/07/13 05:51:42;;;;;;;;;1.33;1.33;;;;;;;;5083454;27;46261;-75
2023/07/13 05:54:07;;;;;;;;;1.33;1.33;;;;;;;;5101923;27;46024;-75
2023/07/13 05:56:32;;;;;;;;;2.00;1.67;;;;;;;;5101942;27;45301;-74
2023/07/13 05:58:58;;;;;;;;;3.33;2.67;;;;;;;;5101875;27;45281;-75
2023/07/13 06:01:23;;;;;;;;;0.33;0.00;;;;;;;;5102124;27;45316;-75
2023/07/13 06:03:49;;;;;;;;;2.33;1.33;;;;;;;;5101738;27;45803;-75
2023/07/13 06:06:15;;;;;;;;;2.00;1.33;;;;;;;;5097072;27;45199;-74
2023/07/13 06:08:40;;;;;;;;;4.00;2.00;;;;;;;;5076355;28;45481;-74
2023/07/13 06:11:06;;;;;;;;;2.33;2.33;;;;;;;;5080449;28;45686;-75
2023/07/13 06:13:33;;;;;;;;;2.00;2.00;;;;;;;;5080708;28;46074;-74
2023/07/13 06:15:58;;;;;;;;;1.67;1.67;;;;;;;;5062622;28;45588;-73
2023/07/13 06:18:23;;;;;;;;;3.00;2.00;;;;;;;;5063071;28;45452;-74
2023/07/13 06:20:48;;;;;;;;;2.67;2.67;;;;;;;;5080979;28;45345;-74
2023/07/13 06:23:14;;;;;;;;;1.00;1.00;;;;;;;;5062760;28;47556;-74
2023/07/13 06:25:40;;;;;;;;;2.33;2.33;;;;;;;;5081104;28;45246;-74
2023/07/13 06:28:05;;;;;;;;;3.33;2.33;;;;;;;;5062654;28;45350;-74
2023/07/13 06:30:31;;;;;;;;;3.33;3.33;;;;;;;;5068797;28;46416;-75
2023/07/13 06:32:56;;;;;;;;;3.33;3.33;;;;;;;;5060348;28;47192;-73
2023/07/13 06:35:22;;;;;;;;;0.67;0.67;;;;;;;;5080264;28;45305;-76
2023/07/13 06:37:47;;;;;;;;;2.33;1.67;;;;;;;;5080561;27;45300;-75
2023/07/13 06:40:12;;;;;;;;;1.00;0.00;;;;;;;;5061154;28;45889;-75
2023/07/13 06:42:38;;;;;;;;;1.00;1.00;;;;;;;;5062047;27;46854;-75
2023/07/13 06:45:03;;;;;;;;;2.00;2.00;;;;;;;;5062409;28;45313;-74
2023/07/13 06:47:29;;;;;;;;;3.00;3.00;;;;;;;;5062137;27;45359;-74
2023/07/13 06:49:54;;;;;;;;;3.00;3.00;;;;;;;;5061949;28;45358;-74
2023/07/13 06:52:19;;;;;;;;;1.67;1.67;;;;;;;;5062568;28;47677;-73
2023/07/13 06:54:48;;;;;;;;;4.67;3.67;;;;;;;;5061842;28;45506;-73
2023/07/13 06:57:13;;;;;;;;;2.67;2.33;;;;;;;;5062078;28;45362;-75
2023/07/13 06:59:38;;;;;;;;;3.00;3.00;;;;;;;;5061107;28;46226;-74
2023/07/13 07:02:04;;;;;;;;;2.00;2.00;;;;;;;;5060542;28;45658;-74
2023/07/13 07:04:29;;;;;;;;;3.67;2.67;;;;;;;;5059645;28;45518;-74
2023/07/13 07:06:55;;;;;;;;;2.00;2.00;;;;;;;;5060407;28;45418;-75
2023/07/13 07:09:20;;;;;;;;;3.00;3.00;;;;;;;;5060627;28;45376;-74
2023/07/13 07:11:45;;;;;;;;;2.67;2.00;;;;;;;;5060574;28;46237;-75
2023/07/13 07:14:11;;;;;;;;;1.33;1.33;;;;;;;;5060328;28;45466;-74
2023/07/13 07:16:36;;;;;;;;;3.00;3.00;;;;;;;;5060348;28;45427;-74
2023/07/13 07:19:01;;;;;;;;;1.33;1.33;;;;;;;;5061379;28;45379;-74
2023/07/13 07:21:27;;;;;;;;;2.33;2.33;;;;;;;;5080122;28;45493;-74
2023/07/13 07:23:52;;;;;;;;;2.00;2.00;;;;;;;;5061281;28;45325;-72
2023/07/13 07:26:17;;;;;;;;;3.67;3.67;;;;;;;;5080541;28;45248;-73
2023/07/13 07:28:43;;;;;;;;;2.67;2.67;;;;;;;;5065189;27;45358;-73
2023/07/13 07:31:08;;;;;;;;;3.00;1.00;;;;;;;;5083992;27;45617;-74
2023/07/13 07:33:34;;;;;;;;;3.00;3.00;;;;;;;;5085059;27;45257;-75
2023/07/13 07:35:59;;;;;;;;;4.00;3.00;;;;;;;;5084283;27;45339;-76
2023/07/13 07:38:24;;;;;;;;;2.33;2.00;;;;;;;;5085269;27;45982;-75
2023/07/13 07:40:54;;;;;;;;;3.00;2.00;;;;;;;;5081241;27;47323;-75
2023/07/13 07:43:19;;;;;;;;;4.00;3.67;;;;;;;;5078388;28;45441;-72
2023/07/13 07:45:45;;;;;;;;;3.00;3.00;;;;;;;;5078584;28;45523;-74
2023/07/13 07:48:10;;;;;;;;;3.33;3.33;;;;;;;;5079949;28;45329;-77
2023/07/13 07:50:35;;;;;;;;;6.00;6.00;;;;;;;;5077879;28;47609;-74
2023/07/13 07:53:02;;;;;;;;;3.67;3.67;;;;;;;;5078250;28;45263;-73
2023/07/13 07:55:27;;;;;;;;;4.00;3.33;;;;;;;;5080036;27;45287;-73
2023/07/13 07:57:52;;;;;;;;;4.00;4.00;;;;;;;;5079505;27;45563;-74
2023/07/13 08:00:18;;;;;;;;;4.00;4.00;;;;;;;;5079444;28;45329;-74
2023/07/13 08:02:43;;;;;;;;;2.67;2.00;;;;;;;;5078401;28;45383;-75
2023/07/13 08:05:09;;;;;;;;;3.33;3.33;;;;;;;;5078326;28;45310;-74
2023/07/13 08:07:35;;;;;;;;;4.00;3.00;;;;;;;;5078225;28;47285;-74
2023/07/13 08:10:00;;;;;;;;;4.00;4.00;;;;;;;;5079571;27;45592;-75
2023/07/13 08:12:26;;;;;;;;;4.67;4.67;;;;;;;;5079578;28;45575;-75
2023/07/13 08:14:57;;;;;;;;;3.00;3.00;;;;;;;;5078272;28;45328;-75
2023/07/13 08:17:23;;;;;;;;;5.00;3.00;;;;;;;;5078158;28;45538;-75
2023/07/13 08:19:48;;;;;;;;;1.67;1.67;;;;;;;;5077969;28;47083;-75
2023/07/13 08:22:13;;;;;;;;;2.33;2.33;;;;;;;;5077834;28;45523;-74
2023/07/13 08:24:38;;;;;;;;;4.33;4.33;;;;;;;;5079525;28;45503;-74
2023/07/13 08:27:04;;;;;;;;;3.33;3.33;;;;;;;;5077759;28;45485;-74
2023/07/13 08:29:31;;;;;;;;;5.67;3.00;;;;;;;;5068801;27;46278;-73
2023/07/13 08:31:57;;;;;;;;;3.00;3.00;;;;;;;;5059003;28;45322;-73
2023/07/13 08:34:22;;;;;;;;;4.67;3.67;;;;;;;;5059003;28;45307;-74
2023/07/13 08:36:47;;;;;;;;;2.00;2.00;;;;;;;;5058285;28;45524;-74
2023/07/13 08:39:13;;;;;;;;;4.00;3.67;;;;;;;;5058745;28;45302;-74
2023/07/13 08:41:38;;;;;;;;;4.67;4.67;;;;;;;;5058849;28;45310;-75
2023/07/13 08:44:07;;;;;;;;;4.00;2.00;;;;;;;;5057027;28;45495;-74
2023/07/13 08:46:35;;;;;;;;;3.00;3.00;;;;;;;;5057204;28;45552;-74
2023/07/13 08:49:05;;;;;;;;;4.00;4.00;;;;;;;;5058690;28;45321;-74
2023/07/13 08:51:56;;;;;;;;;5.00;3.00;;;;;;;;5058524;28;45348;-74
2023/07/13 08:54:22;;;;;;;;;4.00;4.00;;;;;;;;5036515;28;45455;-74
2023/07/13 08:56:52;;;;;;;;;4.33;3.00;;;;;;;;5060633;28;45334;-75
2023/07/13 08:59:20;;;;;;;;;3.00;3.00;;;;;;;;5060379;28;45739;-75
2023/07/13 09:02:01;;;;;;;;;3.00;3.00;;;;;;;;5041748;28;45628;-73
2023/07/13 09:04:40;;;;;;;;;3.67;3.67;;;;;;;;5037615;28;45410;-75
2023/07/13 09:07:06;;;;;;;;;5.00;5.00;;;;;;;;5040531;28;46234;-74
2023/07/13 09:09:33;;;;;;;;;3.00;3.00;;;;;;;;5044581;28;45903;-75
2023/07/13 09:12:07;;;;;;;;;3.00;3.00;;;;;;;;5045052;28;46004;-73
2023/07/13 09:14:37;;;;;;;;;6.67;5.00;;;;;;;;5040168;28;45419;-74
2023/07/13 09:17:04;;;;;;;;;4.33;4.33;;;;;;;;5040108;28;46766;-73
2023/07/13 09:19:32;;;;;;;;;3.00;3.00;;;;;;;;5041507;28;46062;-74
2023/07/13 09:21:59;;;;;;;;;6.00;4.00;;;;;;;;5038913;28;45447;-75
2023/07/13 09:24:24;;;;;;;;;4.00;3.00;;;;;;;;5040042;28;45341;-75
2023/07/13 09:26:50;;;;;;;;;4.00;4.00;;;;;;;;5041471;28;45385;-74
2023/07/13 09:29:26;;;;;;;;;4.00;4.00;;;;;;;;5047902;28;47672;-74
2023/07/13 09:31:54;;;;;;;;;5.00;5.00;;;;;;;;5043831;28;45305;-75
2023/07/13 09:34:19;;;;;;;;;5.00;4.00;;;;;;;;5041533;28;45292;-75
2023/07/13 09:36:44;;;;;;;;;5.00;4.00;;;;;;;;5039489;28;45313;-75
2023/07/13 09:39:13;;;;;;;;;4.00;4.00;;;;;;;;5039609;28;46187;-74
2023/07/13 09:41:47;;;;;;;;;4.33;3.67;;;;;;;;5039883;28;45427;-74
2023/07/13 09:44:14;;;;;;;;;6.00;6.00;;;;;;;;5039535;28;45365;-74
2023/07/13 09:46:43;;;;;;;;;3.33;3.33;;;;;;;;5039133;28;45382;-75
2023/07/13 09:49:10;;;;;;;;;2.67;2.33;;;;;;;;5036385;28;45298;-74
2023/07/13 09:51:35;;;;;;;;;6.33;4.33;;;;;;;;5036801;28;45403;-74
2023/07/13 09:54:02;;;;;;;;;4.67;4.00;;;;;;;;5040497;28;45362;-74
2023/07/13 09:56:29;;;;;;;;;2.00;2.00;;;;;;;;5040960;28;45335;-74
2023/07/13 09:58:54;;;;;;;;;3.67;3.00;;;;;;;;5039286;28;47396;-74
2023/07/13 10:01:33;;;;;;;;;4.67;3.33;;;;;;;;5037546;28;45421;-75
2023/07/13 10:03:58;;;;;;;;;3.33;3.33;;;;;;;;5039151;28;45296;-74
2023/07/13 10:06:26;;;;;;;;;4.00;3.00;;;;;;;;5040687;28;45449;-75
2023/07/13 10:08:51;;;;;;;;;3.00;3.00;;;;;;;;5040826;28;45356;-74
2023/07/13 10:11:22;;;;;;;;;2.00;2.00;;;;;;;;5039486;28;45272;-74
2023/07/13 10:13:53;;;;;;;;;5.33;3.33;;;;;;;;5040667;28;45376;-75
2023/07/13 10:16:19;;;;;;;;;7.00;7.00;;;;;;;;5040589;28;45296;-74
2023/07/13 10:18:55;;;;;;;;;4.33;4.33;;;;;;;;5040600;28;45357;-74
2023/07/13 10:21:22;;;;;;;;;3.33;3.33;;;;;;;;5039270;28;45543;-76
2023/07/13 10:23:50;;;;;;;;;3.00;3.00;;;;;;;;5039336;28;45267;-74
2023/07/13 10:26:18;;;;;;;;;4.00;4.00;;;;;;;;5040573;28;45532;-74
2023/07/13 10:28:45;;;;;;;;;3.67;3.67;;;;;;;;5040142;28;45346;-74
2023/07/13 10:31:12;;;;;;;;;7.00;7.00;;;;;;;;5040543;28;45268;-74
2023/07/13 10:33:37;;;;;;;;;5.00;5.00;;;;;;;;5040561;28;45395;-73
2023/07/13 10:36:13;;;;;;;;;0.00;0.00;;;;;;;;5039006;28;45928;-74
2023/07/13 10:38:39;;;;;;;;;4.33;4.33;;;;;;;;5040353;28;46812;-75
2023/07/13 10:41:10;;;;;;;;;5.00;5.00;;;;;;;;5040345;28;45340;-74
2023/07/13 10:43:40;;;;;;;;;2.00;2.00;;;;;;;;5065250;28;45369;-74
2023/07/13 10:46:06;;;;;;;;;3.67;3.67;;;;;;;;5080758;28;45550;-75
2023/07/13 10:48:34;;;;;;;;;4.00;2.67;;;;;;;;5080713;28;45415;-76
2023/07/13 10:51:01;;;;;;;;;0.00;0.00;;;;;;;;5080846;28;45323;-75
2023/07/13 10:53:29;;;;;;;;;2.67;2.00;;;;;;;;5080698;28;45466;-74
2023/07/13 10:55:59;;;;;;;;;2.33;2.33;;;;;;;;5080453;28;45364;-75
2023/07/13 10:58:33;;;;;;;;;2.33;2.33;;;;;;;;5061800;28;47166;-75
2023/07/13 11:01:03;;;;;;;;;2.67;2.00;;;;;;;;5061836;28;45324;-74
2023/07/13 11:03:29;;;;;;;;;3.67;2.00;;;;;;;;5080640;28;45342;-75
2023/07/13 11:06:14;;;;;;;;;3.00;3.00;;;;;;;;5061955;28;45209;-75
2023/07/13 11:08:46;;;;;;;;;2.33;2.33;;;;;;;;5079514;28;46667;-75
2023/07/13 11:11:32;;;;;;;;;2.67;2.67;;;;;;;;5080200;28;45313;-73
2023/07/13 11:14:04;;;;;;;;;1.00;1.00;;;;;;;;5062100;28;45254;-74
2023/07/13 11:16:46;;;;;;;;;2.67;2.67;;;;;;;;5079620;28;45257;-75
2023/07/13 11:19:14;;;;;;;;;1.00;1.00;;;;;;;;5080216;28;46291;-75
2023/07/13 11:21:58;;;;;;;;;1.00;1.00;;;;;;;;5062098;28;45394;-75
2023/07/13 11:24:28;;;;;;;;;2.33;1.33;;;;;;;;5061961;28;45327;-74
2023/07/13 11:26:53;;;;;;;;;2.67;1.67;;;;;;;;5061780;28;47869;-74
2023/07/13 11:29:21;;;;;;;;;2.67;1.67;;;;;;;;5086938;27;45374;-75
2023/07/13 11:31:54;;;;;;;;;2.00;2.00;;;;;;;;5082459;27;45287;-75
2023/07/13 11:34:45;;;;;;;;;1.67;1.67;;;;;;;;5099318;27;45294;-74
2023/07/13 11:37:12;;;;;;;;;2.67;2.67;;;;;;;;5078700;27;46529;-74
2023/07/13 11:39:41;;;;;;;;;2.00;2.00;;;;;;;;5100714;27;45312;-74
2023/07/13 11:42:11;;;;;;;;;1.33;1.33;;;;;;;;5099166;27;45364;-75
2023/07/13 11:44:41;;;;;;;;;1.67;1.00;;;;;;;;5100156;27;45376;-74
2023/07/13 11:47:14;;;;;;;;;2.00;2.00;;;;;;;;5099292;27;45431;-74
2023/07/13 11:49:48;;;;;;;;;2.00;2.00;;;;;;;;5099746;27;45328;-74
2023/07/13 11:52:21;;;;;;;;;3.00;2.67;;;;;;;;5078165;28;45240;-74
2023/07/13 11:54:56;;;;;;;;;2.67;2.67;;;;;;;;5079835;28;45311;-74
2023/07/13 11:57:31;;;;;;;;;2.00;2.00;;;;;;;;5079500;28;45503;-74
2023/07/13 11:59:56;;;;;;;;;3.00;3.00;;;;;;;;5079541;28;45361;-74
2023/07/13 12:02:32;;;;;;;;;1.00;1.00;;;;;;;;5079537;28;45365;-74
2023/07/13 12:04:58;;;;;;;;;1.67;1.67;;;;;;;;5079708;28;45284;-73
2023/07/13 12:07:23;;;;;;;;;0.00;0.00;;;;;;;;5079474;28;45317;-73
2023/07/13 12:09:50;;;;;;;;;3.75;3.00;;;;;;;;5079474;28;45970;-74
2023/07/13 12:12:19;;;;;;;;;2.25;2.25;;;;;;;;5079781;28;45232;-74
2023/07/13 12:14:44;;;;;;;;;1.33;1.33;;;;;;;;5079503;28;45313;-73
2023/07/13 12:17:18;;;;;;;;;1.50;1.50;;;;;;;;5079490;28;45267;-74
2023/07/13 12:19:43;;;;;;;;;2.25;2.25;;;;;;;;5061019;28;48475;-73
2023/07/13 12:22:11;;;;;;;;;2.00;2.00;;;;;;;;5079334;28;45271;-73
2023/07/13 12:24:36;;;;;;;;;1.00;1.00;;;;;;;;5061301;28;45309;-73
2023/07/13 12:27:03;;;;;;;;;1.75;1.75;;;;;;;;5060917;28;47275;-73
2023/07/13 12:29:29;;;;;;;;;1.75;1.75;;;;;;;;5091635;27;46316;-74
2023/07/13 12:31:55;;;;;;;;;0.00;0.00;;;;;;;;5103406;27;45245;-74
2023/07/13 12:34:24;;;;;;;;;1.00;1.00;;;;;;;;5103611;27;45222;-74
2023/07/13 12:36:51;;;;;;;;;2.25;1.25;;;;;;;;5084736;27;46228;-75
2023/07/13 12:39:21;;;;;;;;;2.00;2.00;;;;;;;;5102987;27;45343;-75
2023/07/13 12:41:48;;;;;;;;;1.00;1.00;;;;;;;;5103581;27;45355;-75
2023/07/13 12:44:15;;;;;;;;;2.00;2.00;;;;;;;;5103118;27;45439;-75
2023/07/13 12:46:52;;;;;;;;;2.67;2.67;;;;;;;;5084848;27;45499;-75
2023/07/13 12:49:18;;;;;;;;;2.00;2.00;;;;;;;;5103038;27;45351;-74
2023/07/13 12:51:44;;;;;;;;;4.67;2.67;;;;;;;;5103675;27;45317;-74
2023/07/13 12:54:19;;;;;;;;;3.25;2.75;;;;;;;;5085144;27;45343;-75
2023/07/13 12:56:45;;;;;;;;;5.75;4.50;;;;;;;;5103324;27;45247;-75
2023/07/13 12:59:16;;;;;;;;;3.00;3.00;;;;;;;;5103510;27;45447;-75
2023/07/13 13:01:44;;;;;;;;;2.00;1.50;;;;;;;;5084241;27;45333;-76
2023/07/13 13:04:11;;;;;;;;;2.67;2.67;;;;;;;;5084377;27;45406;-75
2023/07/13 13:06:37;;;;;;;;;3.00;3.00;;;;;;;;5106449;27;45631;-75
2023/07/13 13:09:03;;;;;;;;;1.00;1.00;;;;;;;;5110035;27;46062;-75
2023/07/13 13:11:29;;;;;;;;;3.00;3.00;;;;;;;;5093459;27;45443;-76
2023/07/13 13:13:55;;;;;;;;;3.67;2.00;;;;;;;;5110560;27;45236;-76
2023/07/13 13:16:39;;;;;;;;;3.00;3.00;;;;;;;;5100250;27;45540;-78
2023/07/13 13:19:13;;;;;;;;;2.67;2.67;;;;;;;;5066922;28;45629;-74
2023/07/13 13:21:38;;;;;;;;;4.00;4.00;;;;;;;;5065049;28;45490;-77
2023/07/13 13:24:13;;;;;;;;;3.00;3.00;;;;;;;;5079027;28;45502;-79
2023/07/13 13:26:41;;;;;;;;;3.00;2.00;;;;;;;;5080570;28;45475;-76
2023/07/13 13:29:13;;;;;;;;;4.00;4.00;;;;;;;;5065660;28;46899;-78
2023/07/13 13:31:38;;;;;;;;;4.00;4.00;;;;;;;;5081955;28;45236;-77
2023/07/13 13:34:07;;;;;;;;;5.00;4.00;;;;;;;;5064093;28;45341;-76
2023/07/13 13:36:32;;;;;;;;;4.00;2.00;;;;;;;;5081868;28;45367;-76
2023/07/13 13:38:57;;;;;;;;;4.25;2.50;;;;;;;;5082700;28;45323;-77
2023/07/13 13:41:22;;;;;;;;;3.67;3.67;;;;;;;;5082868;28;45334;-75
2023/07/13 13:43:48;;;;;;;;;3.67;3.67;;;;;;;;5083736;28;45268;-75
2023/07/13 13:46:39;;;;;;;;;3.50;3.50;;;;;;;;5064395;28;46798;-75
2023/07/13 13:49:06;;;;;;;;;2.00;2.00;;;;;;;;5062598;28;48859;-77
2023/07/13 13:51:31;;;;;;;;;2.67;2.67;;;;;;;;5084608;28;45522;-75
2023/07/13 13:53:57;;;;;;;;;5.33;5.33;;;;;;;;5065850;28;45324;-76
2023/07/13 13:56:22;;;;;;;;;2.50;2.50;;;;;;;;5084297;28;45461;-75
2023/07/13 13:58:47;;;;;;;;;4.00;4.00;;;;;;;;5084560;28;46490;-76
2023/07/13 14:01:16;;;;;;;;;2.00;2.00;;;;;;;;5082143;28;45599;-76
2023/07/13 14:03:41;;;;;;;;;4.00;2.00;;;;;;;;5065910;28;45328;-76
2023/07/13 14:06:08;;;;;;;;;2.50;2.00;;;;;;;;5086115;28;45323;-76
2023/07/13 14:08:33;;;;;;;;;1.00;1.00;;;;;;;;5083619;28;45686;-76
2023/07/13 14:10:58;;;;;;;;;2.00;2.00;;;;;;;;5063207;28;45308;-76
2023/07/13 14:13:46;;;;;;;;;2.00;2.00;;;;;;;;5084762;28;45511;-78
2023/07/13 14:16:14;;;;;;;;;1.00;1.00;;;;;;;;5077028;27;45237;-76
2023/07/13 14:18:40;;;;;;;;;0.00;0.00;;;;;;;;5102528;27;45386;-78
2023/07/13 14:21:13;;;;;;;;;2.00;2.00;;;;;;;;5073578;28;45162;-77
2023/07/13 14:23:38;;;;;;;;;0.50;0.00;;;;;;;;5082063;28;45384;-75
2023/07/13 14:26:08;;;;;;;;;1.75;1.75;;;;;;;;5062918;28;45419;-78
2023/07/13 14:28:34;;;;;;;;;3.00;2.00;;;;;;;;5065138;27;48313;-76
2023/07/13 14:30:59;;;;;;;;;2.75;1.50;;;;;;;;5074406;27;45366;-74
2023/07/13 14:33:24;;;;;;;;;1.75;1.50;;;;;;;;5065273;28;45367;-75
2023/07/13 14:35:50;;;;;;;;;0.00;0.00;;;;;;;;5080714;28;45457;-74
2023/07/13 14:38:17;;;;;;;;;2.00;1.50;;;;;;;;5080821;27;46059;-73
2023/07/13 14:40:42;;;;;;;;;2.00;1.00;;;;;;;;5062095;28;46214;-74
2023/07/13 14:43:11;;;;;;;;;1.25;1.25;;;;;;;;5080644;27;45378;-75